sensor_id;sensor_type;location;lat;lon;timestamp;P1;durP1;ratioP1;P2;durP2;ratioP2
20734;SDS011;10528;52.124;5.196;2023-04-06T00:00:57;14.52;;;9.30;;
20734;SDS011;10528;52.124;5.196;2023-04-06T00:03:24;14.70;;;9.23;;
20734;SDS011;10528;52.124;5.196;2023-04-06T00:05:51;15.10;;;9.48;;
20734;SDS011;10528;52.124;5.196;2023-04-06T00:08:19;13.85;;;9.20;;
20734;SDS011;10528;52.124;5.196;2023-04-06T00:10:47;15.77;;;9.57;;
20734;SDS011;10528;52.124;5.196;2023-04-06T00:13:14;15.57;;;9.82;;
20734;SDS011;10528;52.124;5.196;2023-04-06T00:15:41;16.70;;;10.20;;
20734;SDS011;10528;52.124;5.196;2023-04-06T00:18:08;14.65;;;10.00;;
20734;SDS011;10528;52.124;5.196;2023-04-06T00:20:35;16.33;;;9.18;;
20734;SDS011;10528;52.124;5.196;2023-04-06T00:23:02;14.80;;;10.18;;
20734;SDS011;10528;52.124;5.196;2023-04-06T00:25:28;16.13;;;9.98;;
20734;SDS011;10528;52.124;5.196;2023-04-06T00:27:55;13.55;;;9.20;;
20734;SDS011;10528;52.124;5.196;2023-04-06T00:30:22;14.13;;;10.20;;
20734;SDS011;10528;52.124;5.196;2023-04-06T00:32:49;14.73;;;9.57;;
20734;SDS011;10528;52.124;5.196;2023-04-06T00:35:16;15.32;;;10.80;;
20734;SDS011;10528;52.124;5.196;2023-04-06T00:37:45;15.27;;;10.43;;
20734;SDS011;10528;52.124;5.196;2023-04-06T00:40:14;15.00;;;10.05;;
20734;SDS011;10528;52.124;5.196;2023-04-06T00:42:41;13.52;;;10.02;;
20734;SDS011;10528;52.124;5.196;2023-04-06T00:45:09;14.88;;;9.93;;
20734;SDS011;10528;52.124;5.196;2023-04-06T00:47:36;14.82;;;9.15;;
20734;SDS011;10528;52.124;5.196;2023-04-06T00:50:03;16.23;;;9.13;;
20734;SDS011;10528;52.124;5.196;2023-04-06T00:52:31;15.70;;;9.60;;
20734;SDS011;10528;52.124;5.196;2023-04-06T00:55:00;16.00;;;9.85;;
20734;SDS011;10528;52.124;5.196;2023-04-06T00:57:27;16.92;;;10.27;;
20734;SDS011;10528;52.124;5.196;2023-04-06T00:59:55;13.40;;;9.65;;
20734;SDS011;10528;52.124;5.196;2023-04-06T01:02:23;15.15;;;10.25;;
20734;SDS011;10528;52.124;5.196;2023-04-06T01:04:52;14.75;;;9.95;;
20734;SDS011;10528;52.124;5.196;2023-04-06T01:07:29;16.13;;;10.48;;
20734;SDS011;10528;52.124;5.196;2023-04-06T01:10:07;15.20;;;9.52;;
20734;SDS011;10528;52.124;5.196;2023-04-06T01:12:36;15.43;;;10.38;;
20734;SDS011;10528;52.124;5.196;2023-04-06T01:15:09;14.35;;;9.80;;
20734;SDS011;10528;52.124;5.196;2023-04-06T01:17:40;14.45;;;9.43;;
20734;SDS011;10528;52.124;5.196;2023-04-06T01:20:12;13.95;;;9.70;;
20734;SDS011;10528;52.124;5.196;2023-04-06T01:22:39;13.48;;;9.73;;
20734;SDS011;10528;52.124;5.196;2023-04-06T01:25:06;16.13;;;9.75;;
20734;SDS011;10528;52.124;5.196;2023-04-06T01:27:48;13.50;;;9.68;;
20734;SDS011;10528;52.124;5.196;2023-04-06T01:30:38;14.68;;;9.27;;
20734;SDS011;10528;52.124;5.196;2023-04-06T01:33:13;14.38;;;9.23;;
20734;SDS011;10528;52.124;5.196;2023-04-06T01:36:02;11.93;;;8.95;;
20734;SDS011;10528;52.124;5.196;2023-04-06T01:38:30;15.07;;;10.13;;
20734;SDS011;10528;52.124;5.196;2023-04-06T01:40:57;13.52;;;9.32;;
20734;SDS011;10528;52.124;5.196;2023-04-06T01:43:27;15.38;;;9.75;;
20734;SDS011;10528;52.124;5.196;2023-04-06T01:46:07;14.30;;;9.68;;
20734;SDS011;10528;52.124;5.196;2023-04-06T01:48:37;14.77;;;9.45;;
20734;SDS011;10528;52.124;5.196;2023-04-06T01:51:13;16.15;;;10.25;;
20734;SDS011;10528;52.124;5.196;2023-04-06T01:53:53;13.60;;;8.90;;
20734;SDS011;10528;52.124;5.196;2023-04-06T01:56:27;11.82;;;8.55;;
20734;SDS011;10528;52.124;5.196;2023-04-06T01:59:03;14.57;;;9.70;;
20734;SDS011;10528;52.124;5.196;2023-04-06T02:01:37;13.90;;;8.65;;
20734;SDS011;10528;52.124;5.196;2023-04-06T02:04:03;14.30;;;8.82;;
20734;SDS011;10528;52.124;5.196;2023-04-06T02:06:31;14.05;;;9.15;;
20734;SDS011;10528;52.124;5.196;2023-04-06T02:08:59;12.57;;;8.50;;
20734;SDS011;10528;52.124;5.196;2023-04-06T02:11:26;13.65;;;9.32;;
20734;SDS011;10528;52.124;5.196;2023-04-06T02:13:55;13.50;;;9.00;;
20734;SDS011;10528;52.124;5.196;2023-04-06T02:16:27;12.43;;;8.23;;
20734;SDS011;10528;52.124;5.196;2023-04-06T02:18:54;12.82;;;8.52;;
20734;SDS011;10528;52.124;5.196;2023-04-06T02:21:21;12.20;;;9.00;;
20734;SDS011;10528;52.124;5.196;2023-04-06T02:23:48;12.43;;;8.30;;
20734;SDS011;10528;52.124;5.196;2023-04-06T02:26:16;11.70;;;8.52;;
20734;SDS011;10528;52.124;5.196;2023-04-06T02:28:43;13.27;;;8.60;;
20734;SDS011;10528;52.124;5.196;2023-04-06T02:31:10;12.20;;;8.18;;
20734;SDS011;10528;52.124;5.196;2023-04-06T02:33:37;14.32;;;8.98;;
20734;SDS011;10528;52.124;5.196;2023-04-06T02:36:05;13.73;;;9.25;;
20734;SDS011;10528;52.124;5.196;2023-04-06T02:38:32;14.10;;;7.97;;
20734;SDS011;10528;52.124;5.196;2023-04-06T02:41:00;14.13;;;9.00;;
20734;SDS011;10528;52.124;5.196;2023-04-06T02:43:28;14.88;;;8.27;;
20734;SDS011;10528;52.124;5.196;2023-04-06T02:46:04;14.43;;;8.90;;
20734;SDS011;10528;52.124;5.196;2023-04-06T02:48:35;12.38;;;8.77;;
20734;SDS011;10528;52.124;5.196;2023-04-06T02:51:03;13.10;;;8.80;;
20734;SDS011;10528;52.124;5.196;2023-04-06T02:53:30;14.95;;;8.60;;
20734;SDS011;10528;52.124;5.196;2023-04-06T02:55:57;13.68;;;9.02;;
20734;SDS011;10528;52.124;5.196;2023-04-06T02:58:31;13.57;;;8.77;;
20734;SDS011;10528;52.124;5.196;2023-04-06T03:00:58;13.48;;;9.10;;
20734;SDS011;10528;52.124;5.196;2023-04-06T03:03:25;13.70;;;8.60;;
20734;SDS011;10528;52.124;5.196;2023-04-06T03:05:53;13.70;;;9.27;;
20734;SDS011;10528;52.124;5.196;2023-04-06T03:08:25;12.02;;;8.65;;
20734;SDS011;10528;52.124;5.196;2023-04-06T03:10:52;14.45;;;9.77;;
20734;SDS011;10528;52.124;5.196;2023-04-06T03:13:20;13.93;;;9.70;;
20734;SDS011;10528;52.124;5.196;2023-04-06T03:15:50;16.92;;;9.90;;
20734;SDS011;10528;52.124;5.196;2023-04-06T03:18:23;15.95;;;9.85;;
20734;SDS011;10528;52.124;5.196;2023-04-06T03:20:52;16.08;;;9.50;;
20734;SDS011;10528;52.124;5.196;2023-04-06T03:23:31;15.90;;;9.52;;
20734;SDS011;10528;52.124;5.196;2023-04-06T03:26:00;16.33;;;9.88;;
20734;SDS011;10528;52.124;5.196;2023-04-06T03:28:29;19.50;;;9.93;;
20734;SDS011;10528;52.124;5.196;2023-04-06T03:30:59;16.20;;;9.93;;
20734;SDS011;10528;52.124;5.196;2023-04-06T03:33:55;16.20;;;9.35;;
20734;SDS011;10528;52.124;5.196;2023-04-06T03:36:26;14.00;;;9.23;;
20734;SDS011;10528;52.124;5.196;2023-04-06T03:38:55;14.60;;;10.05;;
20734;SDS011;10528;52.124;5.196;2023-04-06T03:41:22;16.50;;;9.73;;
20734;SDS011;10528;52.124;5.196;2023-04-06T03:44:21;15.90;;;9.95;;
20734;SDS011;10528;52.124;5.196;2023-04-06T03:46:48;16.75;;;9.70;;
20734;SDS011;10528;52.124;5.196;2023-04-06T03:49:16;15.93;;;10.27;;
20734;SDS011;10528;52.124;5.196;2023-04-06T03:51:46;17.17;;;10.18;;
20734;SDS011;10528;52.124;5.196;2023-04-06T03:54:13;18.17;;;10.70;;
20734;SDS011;10528;52.124;5.196;2023-04-06T03:56:41;14.85;;;10.65;;
20734;SDS011;10528;52.124;5.196;2023-04-06T03:59:08;17.15;;;10.98;;
20734;SDS011;10528;52.124;5.196;2023-04-06T04:01:35;16.58;;;10.50;;
20734;SDS011;10528;52.124;5.196;2023-04-06T04:04:02;15.65;;;9.90;;
20734;SDS011;10528;52.124;5.196;2023-04-06T04:06:30;18.25;;;11.10;;
20734;SDS011;10528;52.124;5.196;2023-04-06T04:08:58;17.83;;;11.07;;
20734;SDS011;10528;52.124;5.196;2023-04-06T04:11:25;19.52;;;11.75;;
20734;SDS011;10528;52.124;5.196;2023-04-06T04:13:56;16.55;;;10.80;;
20734;SDS011;10528;52.124;5.196;2023-04-06T04:16:23;18.08;;;11.20;;
20734;SDS011;10528;52.124;5.196;2023-04-06T04:18:50;18.08;;;10.68;;
20734;SDS011;10528;52.124;5.196;2023-04-06T04:21:17;18.27;;;11.13;;
20734;SDS011;10528;52.124;5.196;2023-04-06T04:23:44;16.27;;;10.55;;
20734;SDS011;10528;52.124;5.196;2023-04-06T04:26:10;19.38;;;11.15;;
20734;SDS011;10528;52.124;5.196;2023-04-06T04:28:38;16.83;;;10.93;;
20734;SDS011;10528;52.124;5.196;2023-04-06T04:31:05;18.13;;;11.25;;
20734;SDS011;10528;52.124;5.196;2023-04-06T04:33:33;20.33;;;11.88;;
20734;SDS011;10528;52.124;5.196;2023-04-06T04:36:05;19.05;;;10.85;;
20734;SDS011;10528;52.124;5.196;2023-04-06T04:38:38;18.30;;;11.35;;
20734;SDS011;10528;52.124;5.196;2023-04-06T04:41:05;17.25;;;11.75;;
20734;SDS011;10528;52.124;5.196;2023-04-06T04:43:34;17.02;;;11.15;;
20734;SDS011;10528;52.124;5.196;2023-04-06T04:46:01;20.77;;;11.90;;
20734;SDS011;10528;52.124;5.196;2023-04-06T04:48:39;17.05;;;11.25;;
20734;SDS011;10528;52.124;5.196;2023-04-06T04:51:07;17.70;;;11.77;;
20734;SDS011;10528;52.124;5.196;2023-04-06T04:54:02;18.55;;;11.52;;
20734;SDS011;10528;52.124;5.196;2023-04-06T04:56:31;17.58;;;11.77;;
20734;SDS011;10528;52.124;5.196;2023-04-06T04:59:14;19.60;;;11.57;;
20734;SDS011;10528;52.124;5.196;2023-04-06T05:01:49;19.48;;;11.63;;
20734;SDS011;10528;52.124;5.196;2023-04-06T05:04:25;19.85;;;12.35;;
20734;SDS011;10528;52.124;5.196;2023-04-06T05:07:05;17.48;;;10.98;;
20734;SDS011;10528;52.124;5.196;2023-04-06T05:09:36;19.20;;;13.25;;
20734;SDS011;10528;52.124;5.196;2023-04-06T05:12:04;20.38;;;13.30;;
20734;SDS011;10528;52.124;5.196;2023-04-06T05:14:36;18.20;;;12.05;;
20734;SDS011;10528;52.124;5.196;2023-04-06T05:17:09;25.77;;;12.65;;
20734;SDS011;10528;52.124;5.196;2023-04-06T05:19:36;18.95;;;12.23;;
20734;SDS011;10528;52.124;5.196;2023-04-06T05:22:03;19.63;;;13.13;;
20734;SDS011;10528;52.124;5.196;2023-04-06T05:24:33;22.10;;;13.60;;
20734;SDS011;10528;52.124;5.196;2023-04-06T05:27:04;21.25;;;12.70;;
20734;SDS011;10528;52.124;5.196;2023-04-06T05:29:31;20.35;;;12.18;;
20734;SDS011;10528;52.124;5.196;2023-04-06T05:32:00;18.55;;;12.77;;
20734;SDS011;10528;52.124;5.196;2023-04-06T05:34:28;19.70;;;12.70;;
20734;SDS011;10528;52.124;5.196;2023-04-06T05:36:55;18.77;;;12.70;;
20734;SDS011;10528;52.124;5.196;2023-04-06T05:39:24;20.83;;;13.57;;
20734;SDS011;10528;52.124;5.196;2023-04-06T05:41:52;19.95;;;12.88;;
20734;SDS011;10528;52.124;5.196;2023-04-06T05:44:30;19.05;;;12.38;;
20734;SDS011;10528;52.124;5.196;2023-04-06T05:47:05;19.85;;;13.43;;
20734;SDS011;10528;52.124;5.196;2023-04-06T05:49:33;21.23;;;13.80;;
20734;SDS011;10528;52.124;5.196;2023-04-06T05:52:01;23.23;;;13.50;;
20734;SDS011;10528;52.124;5.196;2023-04-06T05:54:28;21.45;;;13.68;;
20734;SDS011;10528;52.124;5.196;2023-04-06T05:57:01;19.15;;;13.10;;
20734;SDS011;10528;52.124;5.196;2023-04-06T05:59:30;21.65;;;13.63;;
20734;SDS011;10528;52.124;5.196;2023-04-06T06:01:57;22.48;;;14.23;;
20734;SDS011;10528;52.124;5.196;2023-04-06T06:04:24;20.55;;;13.50;;
20734;SDS011;10528;52.124;5.196;2023-04-06T06:06:53;21.27;;;13.98;;
20734;SDS011;10528;52.124;5.196;2023-04-06T06:09:32;22.77;;;13.70;;
20734;SDS011;10528;52.124;5.196;2023-04-06T06:12:09;20.42;;;13.50;;
20734;SDS011;10528;52.124;5.196;2023-04-06T06:14:40;23.83;;;14.10;;
20734;SDS011;10528;52.124;5.196;2023-04-06T06:17:07;21.67;;;14.18;;
20734;SDS011;10528;52.124;5.196;2023-04-06T06:19:35;22.45;;;14.85;;
20734;SDS011;10528;52.124;5.196;2023-04-06T06:22:05;19.98;;;13.80;;
20734;SDS011;10528;52.124;5.196;2023-04-06T06:24:35;24.65;;;15.18;;
20734;SDS011;10528;52.124;5.196;2023-04-06T06:27:02;21.90;;;14.63;;
20734;SDS011;10528;52.124;5.196;2023-04-06T06:29:32;20.80;;;13.52;;
20734;SDS011;10528;52.124;5.196;2023-04-06T06:31:59;25.10;;;14.30;;
20734;SDS011;10528;52.124;5.196;2023-04-06T06:34:26;20.75;;;14.70;;
20734;SDS011;10528;52.124;5.196;2023-04-06T06:36:56;20.95;;;14.23;;
20734;SDS011;10528;52.124;5.196;2023-04-06T06:39:23;26.92;;;15.63;;
20734;SDS011;10528;52.124;5.196;2023-04-06T06:41:50;22.13;;;14.80;;
20734;SDS011;10528;52.124;5.196;2023-04-06T06:44:20;23.95;;;15.50;;
20734;SDS011;10528;52.124;5.196;2023-04-06T06:46:47;24.63;;;15.27;;
20734;SDS011;10528;52.124;5.196;2023-04-06T06:49:14;23.42;;;15.23;;
20734;SDS011;10528;52.124;5.196;2023-04-06T06:51:41;23.02;;;15.52;;
20734;SDS011;10528;52.124;5.196;2023-04-06T06:54:08;23.08;;;15.13;;
20734;SDS011;10528;52.124;5.196;2023-04-06T06:56:35;23.27;;;14.63;;
20734;SDS011;10528;52.124;5.196;2023-04-06T06:59:04;24.30;;;15.65;;
20734;SDS011;10528;52.124;5.196;2023-04-06T07:01:33;24.73;;;16.42;;
20734;SDS011;10528;52.124;5.196;2023-04-06T07:04:01;25.35;;;15.77;;
20734;SDS011;10528;52.124;5.196;2023-04-06T07:06:30;24.83;;;15.43;;
20734;SDS011;10528;52.124;5.196;2023-04-06T07:08:57;23.50;;;15.45;;
20734;SDS011;10528;52.124;5.196;2023-04-06T07:11:24;22.77;;;15.60;;
20734;SDS011;10528;52.124;5.196;2023-04-06T07:13:51;25.15;;;15.43;;
20734;SDS011;10528;52.124;5.196;2023-04-06T07:16:17;24.20;;;16.23;;
20734;SDS011;10528;52.124;5.196;2023-04-06T07:18:45;27.73;;;16.08;;
20734;SDS011;10528;52.124;5.196;2023-04-06T07:21:12;25.83;;;17.23;;
20734;SDS011;10528;52.124;5.196;2023-04-06T07:23:39;23.95;;;15.88;;
20734;SDS011;10528;52.124;5.196;2023-04-06T07:26:07;24.40;;;15.30;;
20734;SDS011;10528;52.124;5.196;2023-04-06T07:28:36;27.90;;;15.85;;
20734;SDS011;10528;52.124;5.196;2023-04-06T07:31:03;27.38;;;17.10;;
20734;SDS011;10528;52.124;5.196;2023-04-06T07:33:30;26.02;;;15.82;;
20734;SDS011;10528;52.124;5.196;2023-04-06T07:35:57;27.73;;;17.13;;
20734;SDS011;10528;52.124;5.196;2023-04-06T07:38:25;23.02;;;15.52;;
20734;SDS011;10528;52.124;5.196;2023-04-06T07:40:52;23.35;;;15.25;;
20734;SDS011;10528;52.124;5.196;2023-04-06T07:43:19;28.30;;;16.05;;
20734;SDS011;10528;52.124;5.196;2023-04-06T07:45:47;26.58;;;16.58;;
20734;SDS011;10528;52.124;5.196;2023-04-06T07:48:15;24.05;;;16.80;;
20734;SDS011;10528;52.124;5.196;2023-04-06T07:50:43;23.00;;;16.15;;
20734;SDS011;10528;52.124;5.196;2023-04-06T07:53:10;27.30;;;16.02;;
20734;SDS011;10528;52.124;5.196;2023-04-06T07:55:37;25.75;;;16.73;;
20734;SDS011;10528;52.124;5.196;2023-04-06T07:58:05;26.48;;;17.23;;
20734;SDS011;10528;52.124;5.196;2023-04-06T08:00:31;26.73;;;16.33;;
20734;SDS011;10528;52.124;5.196;2023-04-06T08:02:58;25.80;;;16.60;;
20734;SDS011;10528;52.124;5.196;2023-04-06T08:05:25;30.83;;;18.33;;
20734;SDS011;10528;52.124;5.196;2023-04-06T08:07:52;27.38;;;17.92;;
20734;SDS011;10528;52.124;5.196;2023-04-06T08:10:19;29.73;;;18.80;;
20734;SDS011;10528;52.124;5.196;2023-04-06T08:12:46;27.05;;;16.95;;
20734;SDS011;10528;52.124;5.196;2023-04-06T08:15:13;27.25;;;17.58;;
20734;SDS011;10528;52.124;5.196;2023-04-06T08:17:40;23.67;;;17.30;;
20734;SDS011;10528;52.124;5.196;2023-04-06T08:20:07;30.38;;;18.75;;
20734;SDS011;10528;52.124;5.196;2023-04-06T08:22:34;25.88;;;17.60;;
20734;SDS011;10528;52.124;5.196;2023-04-06T08:25:01;27.33;;;17.40;;
20734;SDS011;10528;52.124;5.196;2023-04-06T08:27:27;25.27;;;17.50;;
20734;SDS011;10528;52.124;5.196;2023-04-06T08:29:54;25.17;;;18.20;;
20734;SDS011;10528;52.124;5.196;2023-04-06T08:32:21;30.05;;;17.75;;
20734;SDS011;10528;52.124;5.196;2023-04-06T08:34:48;28.48;;;18.17;;
20734;SDS011;10528;52.124;5.196;2023-04-06T08:37:15;30.50;;;18.80;;
20734;SDS011;10528;52.124;5.196;2023-04-06T08:39:42;29.65;;;17.70;;
20734;SDS011;10528;52.124;5.196;2023-04-06T08:42:12;30.27;;;19.70;;
20734;SDS011;10528;52.124;5.196;2023-04-06T08:44:52;28.98;;;18.95;;
20734;SDS011;10528;52.124;5.196;2023-04-06T08:47:21;31.80;;;19.40;;
20734;SDS011;10528;52.124;5.196;2023-04-06T08:49:50;30.60;;;19.55;;
20734;SDS011;10528;52.124;5.196;2023-04-06T08:52:19;29.02;;;18.48;;
20734;SDS011;10528;52.124;5.196;2023-04-06T08:54:47;27.40;;;19.15;;
20734;SDS011;10528;52.124;5.196;2023-04-06T08:57:14;29.48;;;18.02;;
20734;SDS011;10528;52.124;5.196;2023-04-06T08:59:42;28.52;;;19.20;;
20734;SDS011;10528;52.124;5.196;2023-04-06T09:02:11;30.77;;;20.00;;
20734;SDS011;10528;52.124;5.196;2023-04-06T09:04:45;32.75;;;19.60;;
20734;SDS011;10528;52.124;5.196;2023-04-06T09:07:15;27.80;;;16.50;;
20734;SDS011;10528;52.124;5.196;2023-04-06T09:09:42;27.85;;;18.38;;
20734;SDS011;10528;52.124;5.196;2023-04-06T09:14:53;28.60;;;18.35;;
20734;SDS011;10528;52.124;5.196;2023-04-06T09:19:50;27.90;;;18.40;;
20734;SDS011;10528;52.124;5.196;2023-04-06T09:22:18;31.08;;;18.42;;
20734;SDS011;10528;52.124;5.196;2023-04-06T09:24:46;31.25;;;19.50;;
20734;SDS011;10528;52.124;5.196;2023-04-06T09:27:17;29.63;;;18.77;;
20734;SDS011;10528;52.124;5.196;2023-04-06T09:29:44;28.60;;;18.05;;
20734;SDS011;10528;52.124;5.196;2023-04-06T09:32:11;29.33;;;18.27;;
20734;SDS011;10528;52.124;5.196;2023-04-06T09:34:42;27.58;;;18.17;;
20734;SDS011;10528;52.124;5.196;2023-04-06T09:37:15;28.92;;;19.88;;
20734;SDS011;10528;52.124;5.196;2023-04-06T09:39:45;32.67;;;20.30;;
20734;SDS011;10528;52.124;5.196;2023-04-06T09:42:25;30.25;;;20.63;;
20734;SDS011;10528;52.124;5.196;2023-04-06T09:44:52;31.42;;;20.55;;
20734;SDS011;10528;52.124;5.196;2023-04-06T09:47:19;32.80;;;21.05;;
20734;SDS011;10528;52.124;5.196;2023-04-06T09:49:54;34.03;;;21.35;;
20734;SDS011;10528;52.124;5.196;2023-04-06T09:52:26;33.88;;;21.60;;
20734;SDS011;10528;52.124;5.196;2023-04-06T09:55:02;35.63;;;20.67;;
20734;SDS011;10528;52.124;5.196;2023-04-06T09:57:42;32.95;;;20.48;;
20734;SDS011;10528;52.124;5.196;2023-04-06T10:00:20;34.00;;;21.25;;
20734;SDS011;10528;52.124;5.196;2023-04-06T10:02:57;31.48;;;20.40;;
20734;SDS011;10528;52.124;5.196;2023-04-06T10:05:46;31.13;;;19.75;;
20734;SDS011;10528;52.124;5.196;2023-04-06T10:08:24;35.30;;;20.77;;
20734;SDS011;10528;52.124;5.196;2023-04-06T10:10:58;31.90;;;19.35;;
20734;SDS011;10528;52.124;5.196;2023-04-06T10:13:27;30.38;;;18.90;;
20734;SDS011;10528;52.124;5.196;2023-04-06T10:15:54;29.05;;;17.50;;
20734;SDS011;10528;52.124;5.196;2023-04-06T10:18:22;27.10;;;17.30;;
20734;SDS011;10528;52.124;5.196;2023-04-06T10:20:50;25.58;;;15.10;;
20734;SDS011;10528;52.124;5.196;2023-04-06T10:23:31;20.08;;;12.75;;
20734;SDS011;10528;52.124;5.196;2023-04-06T10:26:02;18.58;;;12.32;;
20734;SDS011;10528;52.124;5.196;2023-04-06T10:28:30;16.25;;;11.35;;
20734;SDS011;10528;52.124;5.196;2023-04-06T10:31:01;16.65;;;10.90;;
20734;SDS011;10528;52.124;5.196;2023-04-06T10:33:31;17.92;;;10.77;;
20734;SDS011;10528;52.124;5.196;2023-04-06T10:36:15;15.95;;;10.15;;
20734;SDS011;10528;52.124;5.196;2023-04-06T10:38:59;13.95;;;9.60;;
20734;SDS011;10528;52.124;5.196;2023-04-06T10:41:36;12.98;;;8.93;;
20734;SDS011;10528;52.124;5.196;2023-04-06T10:44:21;12.40;;;7.40;;
20734;SDS011;10528;52.124;5.196;2023-04-06T10:46:57;12.40;;;7.43;;
20734;SDS011;10528;52.124;5.196;2023-04-06T10:49:29;12.02;;;7.03;;
20734;SDS011;10528;52.124;5.196;2023-04-06T10:51:56;7.85;;;5.80;;
20734;SDS011;10528;52.124;5.196;2023-04-06T10:54:24;9.65;;;6.63;;
20734;SDS011;10528;52.124;5.196;2023-04-06T10:56:52;9.50;;;6.20;;
20734;SDS011;10528;52.124;5.196;2023-04-06T10:59:20;8.95;;;5.18;;
20734;SDS011;10528;52.124;5.196;2023-04-06T11:01:48;10.85;;;5.28;;
20734;SDS011;10528;52.124;5.196;2023-04-06T11:04:19;9.57;;;5.50;;
20734;SDS011;10528;52.124;5.196;2023-04-06T11:06:47;10.02;;;5.40;;
20734;SDS011;10528;52.124;5.196;2023-04-06T11:09:29;7.95;;;5.78;;
20734;SDS011;10528;52.124;5.196;2023-04-06T11:11:57;8.45;;;5.95;;
20734;SDS011;10528;52.124;5.196;2023-04-06T11:14:25;9.10;;;6.10;;
20734;SDS011;10528;52.124;5.196;2023-04-06T11:16:52;7.68;;;5.60;;
20734;SDS011;10528;52.124;5.196;2023-04-06T11:19:19;10.50;;;6.28;;
20734;SDS011;10528;52.124;5.196;2023-04-06T11:21:47;8.88;;;6.07;;
20734;SDS011;10528;52.124;5.196;2023-04-06T11:24:19;8.38;;;6.28;;
20734;SDS011;10528;52.124;5.196;2023-04-06T11:26:51;9.48;;;6.03;;
20734;SDS011;10528;52.124;5.196;2023-04-06T11:29:26;9.05;;;5.95;;
20734;SDS011;10528;52.124;5.196;2023-04-06T11:32:00;9.48;;;6.00;;
20734;SDS011;10528;52.124;5.196;2023-04-06T11:34:30;7.80;;;5.82;;
20734;SDS011;10528;52.124;5.196;2023-04-06T11:37:03;9.57;;;6.22;;
20734;SDS011;10528;52.124;5.196;2023-04-06T11:39:44;8.88;;;5.85;;
20734;SDS011;10528;52.124;5.196;2023-04-06T11:42:26;9.02;;;5.28;;
20734;SDS011;10528;52.124;5.196;2023-04-06T11:44:58;8.73;;;6.10;;
20734;SDS011;10528;52.124;5.196;2023-04-06T11:47:27;10.35;;;6.35;;
20734;SDS011;10528;52.124;5.196;2023-04-06T11:50:12;10.57;;;5.82;;
20734;SDS011;10528;52.124;5.196;2023-04-06T11:52:41;8.20;;;6.07;;
20734;SDS011;10528;52.124;5.196;2023-04-06T11:55:10;9.15;;;6.20;;
20734;SDS011;10528;52.124;5.196;2023-04-06T11:57:43;9.57;;;5.78;;
20734;SDS011;10528;52.124;5.196;2023-04-06T12:00:11;8.93;;;5.82;;
20734;SDS011;10528;52.124;5.196;2023-04-06T12:02:39;9.05;;;6.70;;
20734;SDS011;10528;52.124;5.196;2023-04-06T12:05:11;10.98;;;5.85;;
20734;SDS011;10528;52.124;5.196;2023-04-06T12:07:38;10.18;;;6.78;;
20734;SDS011;10528;52.124;5.196;2023-04-06T12:10:10;9.35;;;6.45;;
20734;SDS011;10528;52.124;5.196;2023-04-06T12:12:37;11.85;;;6.97;;
20734;SDS011;10528;52.124;5.196;2023-04-06T12:15:04;10.18;;;7.50;;
20734;SDS011;10528;52.124;5.196;2023-04-06T12:17:32;10.05;;;7.13;;
20734;SDS011;10528;52.124;5.196;2023-04-06T12:19:59;13.65;;;8.68;;
20734;SDS011;10528;52.124;5.196;2023-04-06T12:22:43;12.30;;;8.15;;
20734;SDS011;10528;52.124;5.196;2023-04-06T12:25:10;11.30;;;7.90;;
20734;SDS011;10528;52.124;5.196;2023-04-06T12:27:37;11.32;;;8.50;;
20734;SDS011;10528;52.124;5.196;2023-04-06T12:30:03;10.73;;;8.30;;
20734;SDS011;10528;52.124;5.196;2023-04-06T12:32:31;11.73;;;8.52;;
20734;SDS011;10528;52.124;5.196;2023-04-06T12:34:58;12.25;;;8.57;;
20734;SDS011;10528;52.124;5.196;2023-04-06T12:37:26;14.00;;;8.68;;
20734;SDS011;10528;52.124;5.196;2023-04-06T12:39:53;11.52;;;8.50;;
20734;SDS011;10528;52.124;5.196;2023-04-06T12:42:20;12.45;;;8.80;;
20734;SDS011;10528;52.124;5.196;2023-04-06T12:44:47;14.75;;;10.02;;
20734;SDS011;10528;52.124;5.196;2023-04-06T12:47:13;11.90;;;9.00;;
20734;SDS011;10528;52.124;5.196;2023-04-06T12:49:40;13.13;;;9.68;;
20734;SDS011;10528;52.124;5.196;2023-04-06T12:52:07;14.27;;;9.52;;
20734;SDS011;10528;52.124;5.196;2023-04-06T12:54:34;14.30;;;9.93;;
20734;SDS011;10528;52.124;5.196;2023-04-06T12:57:01;13.05;;;9.30;;
20734;SDS011;10528;52.124;5.196;2023-04-06T12:59:28;11.93;;;9.57;;
20734;SDS011;10528;52.124;5.196;2023-04-06T13:02:01;17.30;;;10.27;;
20734;SDS011;10528;52.124;5.196;2023-04-06T13:04:30;12.73;;;9.13;;
20734;SDS011;10528;52.124;5.196;2023-04-06T13:06:57;15.25;;;10.43;;
20734;SDS011;10528;52.124;5.196;2023-04-06T13:09:24;14.82;;;10.15;;
20734;SDS011;10528;52.124;5.196;2023-04-06T13:11:50;14.68;;;10.38;;
20734;SDS011;10528;52.124;5.196;2023-04-06T13:14:17;14.88;;;9.30;;
20734;SDS011;10528;52.124;5.196;2023-04-06T13:16:44;13.55;;;9.88;;
20734;SDS011;10528;52.124;5.196;2023-04-06T13:19:12;16.38;;;10.63;;
20734;SDS011;10528;52.124;5.196;2023-04-06T13:21:39;15.10;;;10.85;;
20734;SDS011;10528;52.124;5.196;2023-04-06T13:24:06;16.40;;;10.73;;
20734;SDS011;10528;52.124;5.196;2023-04-06T13:26:32;15.00;;;9.90;;
20734;SDS011;10528;52.124;5.196;2023-04-06T13:28:59;14.15;;;10.38;;
20734;SDS011;10528;52.124;5.196;2023-04-06T13:31:27;13.60;;;9.75;;
20734;SDS011;10528;52.124;5.196;2023-04-06T13:33:55;13.32;;;10.23;;
20734;SDS011;10528;52.124;5.196;2023-04-06T13:36:21;13.13;;;9.98;;
20734;SDS011;10528;52.124;5.196;2023-04-06T13:38:48;15.38;;;11.38;;
20734;SDS011;10528;52.124;5.196;2023-04-06T13:41:19;14.60;;;10.10;;
20734;SDS011;10528;52.124;5.196;2023-04-06T13:43:48;13.90;;;10.35;;
20734;SDS011;10528;52.124;5.196;2023-04-06T13:46:15;16.73;;;10.80;;
20734;SDS011;10528;52.124;5.196;2023-04-06T13:48:43;14.07;;;10.75;;
20734;SDS011;10528;52.124;5.196;2023-04-06T13:51:11;14.77;;;10.73;;
20734;SDS011;10528;52.124;5.196;2023-04-06T13:53:39;14.70;;;10.63;;
20734;SDS011;10528;52.124;5.196;2023-04-06T13:56:07;17.30;;;12.07;;
20734;SDS011;10528;52.124;5.196;2023-04-06T13:58:34;16.10;;;11.30;;
20734;SDS011;10528;52.124;5.196;2023-04-06T14:01:05;16.52;;;12.65;;
20734;SDS011;10528;52.124;5.196;2023-04-06T14:03:37;17.20;;;12.23;;
20734;SDS011;10528;52.124;5.196;2023-04-06T14:06:09;15.13;;;11.43;;
20734;SDS011;10528;52.124;5.196;2023-04-06T14:08:56;15.80;;;11.05;;
20734;SDS011;10528;52.124;5.196;2023-04-06T14:11:23;17.05;;;10.82;;
20734;SDS011;10528;52.124;5.196;2023-04-06T14:13:50;15.48;;;10.57;;
20734;SDS011;10528;52.124;5.196;2023-04-06T14:16:17;14.15;;;10.32;;
20734;SDS011;10528;52.124;5.196;2023-04-06T14:18:45;16.80;;;11.25;;
20734;SDS011;10528;52.124;5.196;2023-04-06T14:21:12;15.18;;;10.13;;
20734;SDS011;10528;52.124;5.196;2023-04-06T14:23:39;16.75;;;11.43;;
20734;SDS011;10528;52.124;5.196;2023-04-06T14:26:07;14.68;;;11.75;;
20734;SDS011;10528;52.124;5.196;2023-04-06T14:28:35;17.15;;;11.00;;
20734;SDS011;10528;52.124;5.196;2023-04-06T14:31:09;13.88;;;10.52;;
20734;SDS011;10528;52.124;5.196;2023-04-06T14:33:38;14.32;;;10.43;;
20734;SDS011;10528;52.124;5.196;2023-04-06T14:36:06;17.05;;;10.70;;
20734;SDS011;10528;52.124;5.196;2023-04-06T14:38:34;15.35;;;10.63;;
20734;SDS011;10528;52.124;5.196;2023-04-06T14:41:01;14.18;;;10.27;;
20734;SDS011;10528;52.124;5.196;2023-04-06T14:43:28;12.35;;;9.35;;
20734;SDS011;10528;52.124;5.196;2023-04-06T14:45:59;14.50;;;9.50;;
20734;SDS011;10528;52.124;5.196;2023-04-06T14:48:28;13.05;;;9.93;;